Time;durP1;ratioP1;P1;durP2;ratioP2;P2;SDS_P1;SDS_P2;PMS_P1;PMS_P2;Temp;Humidity;BMP_temperature;BMP_pressure;BME280_temperature;BME280_humidity;BME280_pressure;Samples;Min_cycle;Max_cycle;Signal;HPM_P1;HPM_P2
2022/07/08 00:01:55;;;;;;;2.50;2.30;;;;;;;20.19;70.32;99882.92;1729503;82;21528;-73
2022/07/08 00:04:22;;;;;;;3.80;2.25;;;;;;;20.17;70.10;99890.95;1731499;82;21752;-72
2022/07/08 00:06:49;;;;;;;2.30;2.10;;;;;;;20.14;70.06;99902.99;1729804;82;21057;-71
2022/07/08 00:09:15;;;;;;;3.65;1.90;;;;;;;20.09;69.96;99900.17;1729650;82;21106;-74
2022/07/08 00:11:42;;;;;;;2.20;1.98;;;;;;;20.07;69.84;99896.03;1732599;82;21004;-71
2022/07/08 00:14:10;;;;;;;4.00;2.20;;;;;;;20.03;69.83;99891.65;1724159;82;21871;-74
2022/07/08 00:16:40;;;;;;;3.92;2.15;;;;;;;20.00;69.96;99896.95;1733183;82;21084;-74
2022/07/08 00:19:07;;;;;;;1.98;1.70;;;;;;;19.97;70.01;99901.97;1734650;82;21042;-75
2022/07/08 00:21:34;;;;;;;2.42;2.15;;;;;;;20.01;70.06;99904.00;1730216;82;21094;-74
2022/07/08 00:24:00;;;;;;;2.05;1.95;;;;;;;20.11;69.73;99907.52;1739962;82;21082;-73
2022/07/08 00:26:28;;;;;;;2.72;2.52;;;;;;;20.10;69.75;99911.24;1729369;82;21251;-72
2022/07/08 00:28:54;;;;;;;4.30;2.40;;;;;;;20.08;69.92;99921.97;1720694;82;21097;-73
2022/07/08 00:31:21;;;;;;;2.10;1.92;;;;;;;20.06;70.04;99927.58;1707955;83;21057;-73
2022/07/08 00:33:48;;;;;;;2.10;2.00;;;;;;;20.08;70.55;99928.71;1769260;80;21101;-73
2022/07/08 00:36:15;;;;;;;2.45;2.20;;;;;;;20.10;70.52;99927.42;1769700;80;21072;-76
2022/07/08 00:38:41;;;;;;;3.15;2.40;;;;;;;20.12;70.39;99938.81;1764995;80;21639;-75
2022/07/08 00:41:08;;;;;;;2.62;2.12;;;;;;;20.14;70.37;99932.66;1765745;80;21013;-75
2022/07/08 00:43:40;;;;;;;2.90;2.05;;;;;;;20.15;70.17;99932.97;1763439;80;21080;-75
2022/07/08 00:46:07;;;;;;;3.58;2.10;;;;;;;20.16;70.10;99924.34;1749930;80;21002;-74
2022/07/08 00:48:34;;;;;;;2.95;2.55;;;;;;;20.27;70.05;99927.64;1759300;80;21080;-77
2022/07/08 00:51:04;;;;;;;5.25;2.33;;;;;;;20.28;70.34;99928.45;1756345;80;21210;-76
2022/07/08 00:53:31;;;;;;;3.05;2.22;;;;;;;20.27;70.88;99933.03;1768079;80;21001;-76
2022/07/08 00:55:58;;;;;;;2.00;1.90;;;;;;;20.27;70.61;99938.95;1759984;80;21083;-75
2022/07/08 00:58:25;;;;;;;3.25;2.50;;;;;;;20.25;70.73;99933.78;1748578;80;21058;-75
2022/07/08 01:00:52;;;;;;;2.50;2.10;;;;;;;20.24;70.85;99937.52;1755567;80;21080;-74
2022/07/08 01:03:19;;;;;;;1.87;1.77;;;;;;;20.20;70.84;99930.43;1758880;80;22004;-74
2022/07/08 01:05:46;;;;;;;2.67;2.27;;;;;;;20.20;70.81;99934.98;1752097;80;21021;-74
2022/07/08 01:08:12;;;;;;;2.05;1.85;;;;;;;20.18;70.85;99932.50;1766786;80;20997;-76
2022/07/08 01:10:40;;;;;;;1.85;1.67;;;;;;;20.24;70.43;99933.47;1710768;83;21133;-75
2022/07/08 01:13:07;;;;;;;3.65;2.22;;;;;;;20.31;70.25;99936.10;1688935;83;21030;-75
2022/07/08 01:15:34;;;;;;;3.10;2.22;;;;;;;20.30;70.18;99935.28;1764231;80;21244;-73
2022/07/08 01:18:01;;;;;;;3.95;2.30;;;;;;;20.27;70.25;99930.33;1756816;80;21086;-74
2022/07/08 01:20:33;;;;;;;3.55;2.02;;;;;;;20.20;70.77;99929.08;1775514;80;21029;-73
2022/07/08 01:23:01;;;;;;;2.95;2.20;;;;;;;20.16;71.87;99930.56;1746876;80;21052;-74
2022/07/08 01:25:27;;;;;;;5.25;2.60;;;;;;;20.14;72.78;99929.15;1759939;80;21080;-74
2022/07/08 01:27:54;;;;;;;10.18;3.45;;;;;;;20.17;74.60;99936.27;1744533;80;21518;-73
2022/07/08 01:30:23;;;;;;;4.58;2.15;;;;;;;20.23;74.71;99942.63;1755545;80;21032;-79
2022/07/08 01:32:49;;;;;;;8.10;3.08;;;;;;;20.16;75.27;99945.92;1757493;80;21096;-79
2022/07/08 01:35:17;;;;;;;3.10;2.60;;;;;;;20.09;76.67;99937.08;1762080;80;21117;-79
2022/07/08 01:37:44;;;;;;;4.22;2.52;;;;;;;20.00;77.46;99936.58;1734106;80;21150;-78
2022/07/08 01:40:12;;;;;;;7.08;2.33;;;;;;;19.97;78.01;99938.36;1763542;80;21123;-77
2022/07/08 01:42:38;;;;;;;4.17;2.27;;;;;;;19.95;78.47;99939.11;1768105;80;21041;-77
2022/07/08 01:45:07;;;;;;;3.25;2.37;;;;;;;19.88;79.16;99945.13;1777386;80;21013;-77
2022/07/08 01:47:36;;;;;;;2.52;2.20;;;;;;;19.78;79.01;99951.86;1767806;80;21048;-76
2022/07/08 01:50:03;;;;;;;2.83;1.87;;;;;;;19.69;78.77;99950.46;1777718;80;21010;-76
2022/07/08 01:52:31;;;;;;;4.65;2.42;;;;;;;19.61;79.30;99953.45;1777608;80;21242;-76
2022/07/08 01:55:00;;;;;;;3.20;2.50;;;;;;;19.60;78.99;99955.30;1766002;80;21556;-74
2022/07/08 01:57:26;;;;;;;5.90;2.55;;;;;;;19.60;79.00;99965.26;1767241;80;21413;-74
2022/07/08 01:59:53;;;;;;;3.58;2.10;;;;;;;19.52;79.38;99953.42;1760936;80;21450;-76
2022/07/08 02:02:21;;;;;;;4.22;2.75;;;;;;;19.42;79.56;99948.02;1750657;80;21037;-76
2022/07/08 02:04:47;;;;;;;3.55;2.20;;;;;;;19.30;80.02;99937.67;1760459;80;21094;-75
2022/07/08 02:07:15;;;;;;;2.52;2.30;;;;;;;19.25;79.73;99943.70;1757423;80;21153;-75
2022/07/08 02:09:41;;;;;;;2.30;2.10;;;;;;;19.26;79.76;99951.28;1771277;80;21084;-74
2022/07/08 02:12:18;;;;;;;4.50;2.50;;;;;;;19.19;79.39;99958.05;1763150;80;21022;-76
2022/07/08 02:14:50;;;;;;;5.05;2.80;;;;;;;19.10;79.38;99957.19;1763840;80;21559;-72
2022/07/08 02:17:19;;;;;;;3.70;2.20;;;;;;;19.02;80.08;99947.52;1768114;80;21053;-73
2022/07/08 02:19:48;;;;;;;4.08;2.27;;;;;;;19.05;80.85;99931.75;1768948;80;21053;-75
2022/07/08 02:22:15;;;;;;;3.80;2.47;;;;;;;19.12;81.19;99932.22;1770966;80;21033;-76
2022/07/08 02:24:42;;;;;;;5.47;2.50;;;;;;;19.06;81.33;99932.56;1771667;80;21032;-75
2022/07/08 02:27:08;;;;;;;6.80;2.95;;;;;;;18.98;80.10;99935.01;1770397;80;21072;-75
2022/07/08 02:29:35;;;;;;;3.00;2.40;;;;;;;18.91;79.63;99938.79;1771414;80;21538;-75
2022/07/08 02:32:04;;;;;;;1.80;1.70;;;;;;;18.82;79.50;99938.24;1765967;80;21033;-75
2022/07/08 02:34:31;;;;;;;4.95;2.50;;;;;;;18.83;78.96;99942.56;1773713;80;21057;-77
2022/07/08 02:36:58;;;;;;;8.13;4.08;;;;;;;18.88;78.97;99952.70;1757137;80;21549;-75
2022/07/08 02:39:25;;;;;;;6.45;2.95;;;;;;;18.76;79.38;99947.16;1765707;79;21052;-73
2022/07/08 02:41:55;;;;;;;5.00;2.52;;;;;;;18.68;80.81;99957.66;1762966;80;21395;-74
2022/07/08 02:44:22;;;;;;;4.65;2.87;;;;;;;18.60;81.77;99948.47;1764551;80;21073;-80
2022/07/08 02:46:49;;;;;;;3.40;2.22;;;;;;;18.66;83.02;99949.80;1767200;80;21450;-83
2022/07/08 02:49:16;;;;;;;2.60;2.40;;;;;;;18.69;83.32;99944.49;1765781;80;21020;-81
2022/07/08 02:51:43;;;;;;;3.20;2.27;;;;;;;18.63;83.86;99943.48;1763745;80;21049;-82
2022/07/08 02:54:09;;;;;;;2.42;2.00;;;;;;;18.59;83.57;99945.49;1771032;80;21441;-84
2022/07/08 02:56:37;;;;;;;6.53;2.27;;;;;;;18.62;82.75;99945.89;1761108;80;21078;-81
2022/07/08 02:59:05;;;;;;;6.22;2.15;;;;;;;18.60;82.81;99936.36;1767527;80;21021;-79
2022/07/08 03:01:32;;;;;;;2.47;2.27;;;;;;;18.53;82.48;99936.95;1763726;80;21045;-80
2022/07/08 03:03:59;;;;;;;3.62;2.52;;;;;;;18.47;82.04;99937.28;1766637;80;21058;-78
2022/07/08 03:06:25;;;;;;;2.40;2.00;;;;;;;18.43;81.71;99936.88;1756930;80;21081;-79
2022/07/08 03:08:53;;;;;;;2.27;2.08;;;;;;;18.47;81.56;99948.05;1759316;80;20986;-80
2022/07/08 03:11:21;;;;;;;2.90;2.02;;;;;;;18.54;81.16;99951.50;1755552;80;21095;-80
2022/07/08 03:13:47;;;;;;;3.10;2.17;;;;;;;18.51;81.46;99949.78;1759477;80;21021;-79
2022/07/08 03:16:15;;;;;;;3.77;2.70;;;;;;;18.47;81.54;99954.24;1767021;80;21083;-79
2022/07/08 03:18:41;;;;;;;3.77;1.72;;;;;;;18.41;81.19;99952.41;1743169;80;21126;-80
2022/07/08 03:21:08;;;;;;;2.62;2.17;;;;;;;18.44;81.25;99961.91;1756686;80;21084;-79
2022/07/08 03:23:37;;;;;;;4.42;2.75;;;;;;;18.53;80.99;99962.50;1777235;80;21029;-76
2022/07/08 03:26:07;;;;;;;3.52;2.50;;;;;;;18.50;81.01;99963.73;1764428;80;21525;-80
2022/07/08 03:28:35;;;;;;;3.55;2.85;;;;;;;18.48;81.82;99964.47;1757647;80;21059;-79
2022/07/08 03:31:01;;;;;;;3.72;3.08;;;;;;;18.44;81.94;99962.72;1763216;80;21145;-78
2022/07/08 03:33:29;;;;;;;2.55;2.35;;;;;;;18.47;82.30;99962.31;1773647;80;21076;-78
2022/07/08 03:35:55;;;;;;;3.02;2.72;;;;;;;18.57;82.55;99963.72;1761390;80;21076;-77
2022/07/08 03:38:22;;;;;;;3.12;2.30;;;;;;;18.58;82.45;99963.51;1771898;80;21012;-78
2022/07/08 03:43:34;;;;;;;2.80;2.60;;;;;;;18.50;81.71;99963.73;1773167;80;21547;-75
2022/07/08 03:46:01;;;;;;;3.40;2.45;;;;;;;18.53;81.49;99970.05;1779513;80;21123;-76
2022/07/08 03:48:27;;;;;;;2.87;2.62;;;;;;;18.61;81.85;99967.62;1766321;80;21000;-80
2022/07/08 03:50:54;;;;;;;3.33;3.00;;;;;;;18.63;82.13;99965.02;1737483;80;21044;-78
2022/07/08 03:53:21;;;;;;;6.33;3.08;;;;;;;18.61;82.27;99960.90;1759083;80;21052;-77
2022/07/08 03:55:49;;;;;;;3.45;2.62;;;;;;;18.60;82.51;99963.27;1766351;80;21029;-77
2022/07/08 03:58:16;;;;;;;2.58;2.37;;;;;;;18.70;82.35;99967.69;1759769;80;21552;-77
2022/07/08 04:00:42;;;;;;;3.05;2.58;;;;;;;18.79;81.77;99965.55;1760574;79;21045;-77
2022/07/08 04:03:09;;;;;;;3.22;2.90;;;;;;;18.80;81.90;99963.20;1761457;80;21033;-78
2022/07/08 04:05:36;;;;;;;2.77;2.55;;;;;;;18.78;81.48;99962.04;1774012;80;21073;-78
2022/07/08 04:08:03;;;;;;;5.10;3.17;;;;;;;18.75;81.85;99961.11;1744542;80;21052;-79
2022/07/08 04:10:31;;;;;;;4.80;2.70;;;;;;;18.85;82.00;99961.52;1770758;80;21009;-81
2022/07/08 04:12:59;;;;;;;5.22;2.90;;;;;;;18.90;82.24;99963.55;1737334;80;21609;-80
2022/07/08 04:15:28;;;;;;;3.90;3.00;;;;;;;18.85;82.18;99957.98;1776044;80;21001;-79
2022/07/08 04:17:54;;;;;;;6.15;2.70;;;;;;;18.90;82.21;99963.55;1772507;80;21483;-80
2022/07/08 04:20:21;;;;;;;4.20;3.00;;;;;;;18.97;81.76;99964.86;1765604;80;21512;-77
2022/07/08 04:22:48;;;;;;;3.27;2.98;;;;;;;19.07;81.75;99966.55;1757552;80;21056;-80
2022/07/08 04:25:15;;;;;;;4.12;3.65;;;;;;;19.10;81.62;99967.96;1761497;80;21004;-78
2022/07/08 04:27:42;;;;;;;4.55;3.47;;;;;;;19.11;81.46;99969.63;1770022;80;21482;-75
2022/07/08 04:30:09;;;;;;;3.10;2.80;;;;;;;19.10;81.36;99968.78;1770772;80;21092;-78
2022/07/08 04:32:36;;;;;;;2.85;2.65;;;;;;;19.17;81.20;99971.44;1734963;80;21234;-77
2022/07/08 04:35:04;;;;;;;3.25;2.95;;;;;;;19.25;80.63;99972.51;1769313;80;21040;-78
2022/07/08 04:37:31;;;;;;;4.42;3.33;;;;;;;19.21;80.54;99969.95;1761377;80;21044;-80
2022/07/08 04:44:01;;;;;;;3.60;2.87;;;;;;;19.13;80.51;99972.39;1756891;80;21530;-79
2022/07/08 04:46:36;;;;;;;3.58;3.27;;;;;;;19.18;80.36;99976.61;1770002;80;21210;-78
2022/07/08 04:49:05;;;;;;;4.12;3.22;;;;;;;19.17;80.09;99973.60;1761472;80;21012;-80
2022/07/08 04:51:32;;;;;;;6.15;3.80;;;;;;;19.10;80.27;99977.39;1762669;80;21086;-79
2022/07/08 04:53:58;;;;;;;4.10;3.70;;;;;;;19.04;80.30;99969.66;1770482;80;21013;-79
2022/07/08 04:56:25;;;;;;;4.70;3.70;;;;;;;19.02;80.61;99973.09;1771190;80;21055;-78
2022/07/08 04:58:51;;;;;;;4.83;3.62;;;;;;;19.11;80.79;99973.66;1761957;80;21103;-76
2022/07/08 05:01:20;;;;;;;4.95;4.03;;;;;;;19.23;80.58;99987.53;1761609;80;21040;-79
2022/07/08 05:03:47;;;;;;;4.17;3.77;;;;;;;19.27;80.72;99981.72;1757030;80;21047;-79
2022/07/08 05:06:13;;;;;;;4.87;3.77;;;;;;;19.31;80.89;99981.05;1757424;80;21030;-79
2022/07/08 05:08:40;;;;;;;3.55;3.33;;;;;;;19.38;80.72;99981.83;1772236;80;21092;-77
2022/07/08 05:11:08;;;;;;;4.58;4.17;;;;;;;19.55;80.57;99977.25;1762963;80;21208;-79
2022/07/08 05:13:35;;;;;;;5.00;3.45;;;;;;;19.60;80.41;99982.25;1762822;80;20958;-80
2022/07/08 05:16:01;;;;;;;5.62;3.80;;;;;;;19.63;80.08;99976.42;1761147;80;21104;-77
2022/07/08 05:36:00;;;;;;;5.35;3.05;;;;;;;20.79;76.67;99973.05;1805056;78;22788;-78
2022/07/08 05:38:27;;;;;;;3.10;2.80;;;;;;;20.85;76.00;99975.37;1768587;80;21013;-78
2022/07/08 05:40:53;;;;;;;3.33;2.72;;;;;;;20.82;75.63;99975.28;1770736;80;21156;-77
2022/07/08 05:43:20;;;;;;;2.77;2.55;;;;;;;20.74;74.83;99968.33;1727118;81;21105;-74
2022/07/08 05:45:46;;;;;;;3.42;2.77;;;;;;;20.67;74.71;99977.57;1712892;83;21081;-76
2022/07/08 05:48:13;;;;;;;5.05;3.25;;;;;;;20.58;74.23;99973.00;1706113;82;21033;-75
2022/07/08 05:50:39;;;;;;;4.75;2.80;;;;;;;20.50;74.38;99981.42;1714555;81;21022;-78
2022/07/08 05:53:07;;;;;;;3.02;2.67;;;;;;;20.40;74.50;99994.10;1733804;81;21259;-75
2022/07/08 05:55:36;;;;;;;3.00;2.70;;;;;;;20.40;75.67;100001.66;1698564;83;21077;-77
2022/07/08 05:58:02;;;;;;;3.47;2.70;;;;;;;20.50;75.52;99999.78;1728508;82;21067;-76
2022/07/08 06:00:30;;;;;;;2.98;2.72;;;;;;;20.50;75.77;100004.36;1714114;83;21103;-78
2022/07/08 06:02:56;;;;;;;2.60;2.40;;;;;;;20.47;75.02;100008.84;1709022;83;21579;-78
2022/07/08 06:05:23;;;;;;;4.35;2.90;;;;;;;20.39;74.62;100005.93;1724943;83;21547;-78
2022/07/08 06:07:50;;;;;;;5.83;2.80;;;;;;;20.34;74.71;100009.82;1717214;83;21086;-80
2022/07/08 06:10:16;;;;;;;3.02;2.40;;;;;;;20.30;75.39;100007.28;1708630;83;22423;-80
2022/07/08 06:12:44;;;;;;;3.40;2.37;;;;;;;20.34;75.60;100011.17;1739460;81;21599;-78
2022/07/08 06:15:14;;;;;;;2.52;2.35;;;;;;;20.37;74.77;100010.20;1709870;83;20998;-76
2022/07/08 06:17:44;;;;;;;2.50;2.22;;;;;;;20.29;74.60;100017.78;1721951;81;21321;-78
2022/07/08 06:20:14;;;;;;;3.27;2.27;;;;;;;20.17;74.48;100015.83;1721124;81;21033;-79
2022/07/08 06:22:44;;;;;;;4.85;2.50;;;;;;;20.04;74.55;100013.27;1729917;81;21021;-77
2022/07/08 06:25:13;;;;;;;2.80;2.60;;;;;;;19.91;75.03;100012.06;1708990;81;21032;-76
2022/07/08 06:27:40;;;;;;;3.52;2.42;;;;;;;19.80;76.12;100014.45;1709765;83;21521;-77
2022/07/08 06:30:09;;;;;;;7.03;2.70;;;;;;;19.80;76.26;100014.45;1664954;83;21005;-76
2022/07/08 06:32:38;;;;;;;5.80;2.70;;;;;;;19.82;76.40;100011.55;1732935;82;21009;-77
2022/07/08 06:35:08;;;;;;;3.40;2.62;;;;;;;19.76;76.65;100008.36;1690105;83;21101;-78
2022/07/08 06:37:38;;;;;;;3.55;2.60;;;;;;;19.70;77.27;100010.57;1687054;83;21543;-78
2022/07/08 06:40:08;;;;;;;5.40;2.60;;;;;;;19.64;77.57;100003.69;1675170;83;21134;-79
2022/07/08 06:42:37;;;;;;;3.37;2.10;;;;;;;19.68;77.89;100001.88;1699461;83;21313;-81
2022/07/08 06:45:08;;;;;;;3.72;2.65;;;;;;;19.75;77.41;99988.67;1709830;83;21014;-79
2022/07/08 06:47:38;;;;;;;2.37;2.17;;;;;;;19.71;77.35;99983.41;1716623;82;21029;-79
2022/07/08 06:50:06;;;;;;;5.85;2.62;;;;;;;19.70;77.12;99966.09;1715878;83;21533;-76
2022/07/08 06:52:37;;;;;;;2.67;2.47;;;;;;;19.68;77.27;99961.45;1713743;83;21097;-79
2022/07/08 06:55:04;;;;;;;4.20;2.70;;;;;;;19.63;77.48;99949.48;1702570;83;21144;-80
2022/07/08 06:57:32;;;;;;;2.40;2.22;;;;;;;19.69;76.45;99934.29;1710938;82;21109;-80
2022/07/08 07:00:01;;;;;;;3.60;2.22;;;;;;;19.73;76.12;99909.09;1683411;83;20929;-78
2022/07/08 07:02:27;;;;;;;3.27;2.60;;;;;;;19.65;76.14;99906.95;1700732;83;21038;-78
2022/07/08 07:04:54;;;;;;;3.00;2.67;;;;;;;19.61;76.30;99909.80;1707552;82;21053;-78
2022/07/08 07:07:20;;;;;;;3.47;2.58;;;;;;;19.62;76.82;99909.27;1717258;82;21275;-77
2022/07/08 07:09:48;;;;;;;3.22;2.30;;;;;;;19.72;76.91;99910.13;1716247;83;21383;-78
2022/07/08 07:12:15;;;;;;;4.25;2.33;;;;;;;19.87;76.93;99913.28;1694454;82;21062;-77
2022/07/08 07:14:44;;;;;;;4.45;2.58;;;;;;;19.93;76.29;99918.30;1715501;83;21588;-78
2022/07/08 07:17:10;;;;;;;3.67;2.37;;;;;;;19.94;75.19;99924.00;1669909;83;21021;-78
2022/07/08 07:19:39;;;;;;;2.15;1.95;;;;;;;19.92;75.25;99933.66;1687848;83;21073;-78
2022/07/08 07:22:07;;;;;;;2.50;2.20;;;;;;;19.91;74.88;99939.27;1695111;83;21072;-77
2022/07/08 07:24:34;;;;;;;2.45;2.15;;;;;;;19.97;74.35;99939.71;1696134;83;21097;-76
2022/07/08 07:27:01;;;;;;;5.05;2.08;;;;;;;20.04;73.83;99915.66;1702718;83;21532;-76
2022/07/08 07:29:28;;;;;;;2.00;1.90;;;;;;;20.02;72.62;99887.29;1679624;83;21017;-76
2022/07/08 07:31:54;;;;;;;4.40;2.72;;;;;;;19.92;72.80;99866.26;1692536;83;21241;-78
2022/07/08 07:34:22;;;;;;;2.92;2.17;;;;;;;19.83;72.44;99868.42;1695756;83;21085;-77
2022/07/08 07:36:50;;;;;;;2.17;2.02;;;;;;;19.72;72.17;99898.84;1691711;83;21095;-73
2022/07/08 07:39:17;;;;;;;3.58;2.05;;;;;;;19.63;72.57;99923.88;1692176;83;21532;-77
2022/07/08 07:41:48;;;;;;;2.65;2.02;;;;;;;19.59;72.93;99929.95;1722422;82;21124;-83
2022/07/08 07:44:15;;;;;;;2.92;2.35;;;;;;;19.65;73.36;99931.21;1698618;83;21259;-79
2022/07/08 07:46:43;;;;;;;3.25;2.00;;;;;;;19.79;73.17;99936.50;1691775;83;21074;-79
2022/07/08 07:49:11;;;;;;;4.03;2.12;;;;;;;19.83;72.79;99932.30;1705679;83;21036;-79
2022/07/08 07:51:38;;;;;;;1.85;1.72;;;;;;;19.89;72.16;99926.54;1705619;83;21102;-78
2022/07/08 07:54:07;;;;;;;1.90;1.77;;;;;;;19.91;72.10;99933.34;1722074;83;21092;-75
2022/07/08 07:56:36;;;;;;;2.47;2.27;;;;;;;19.94;72.05;99935.60;1706587;83;21162;-78
2022/07/08 07:59:04;;;;;;;2.40;2.20;;;;;;;19.96;71.98;99934.85;1712451;81;21033;-80
2022/07/08 08:01:32;;;;;;;2.87;1.95;;;;;;;20.01;72.33;99936.86;1703818;82;21151;-78
2022/07/08 08:03:58;;;;;;;3.02;1.82;;;;;;;20.07;71.71;99929.24;1712817;81;21255;-78
2022/07/08 08:06:26;;;;;;;2.08;1.98;;;;;;;20.19;71.73;99937.39;1706212;83;21080;-79
2022/07/08 08:08:56;;;;;;;2.15;1.98;;;;;;;20.23;71.84;99943.45;1691460;83;21650;-75
2022/07/08 08:11:22;;;;;;;3.27;2.40;;;;;;;20.29;71.85;99947.64;1710439;82;21093;-81
2022/07/08 08:13:49;;;;;;;2.30;2.00;;;;;;;20.35;71.52;99956.17;1714316;82;21081;-78
2022/07/08 08:16:18;;;;;;;2.27;1.82;;;;;;;20.36;70.77;99962.70;1700277;83;21073;-81
2022/07/08 08:18:45;;;;;;;2.20;2.00;;;;;;;20.42;70.94;99969.06;1711722;81;21095;-76
2022/07/08 08:21:14;;;;;;;2.15;1.95;;;;;;;20.50;70.60;99957.13;1710680;82;21888;-77
2022/07/08 08:23:42;;;;;;;2.35;1.85;;;;;;;20.55;71.00;99947.30;1705414;81;21137;-77
2022/07/08 08:26:13;;;;;;;3.58;1.98;;;;;;;20.69;69.13;99932.30;1715710;82;21093;-77
2022/07/08 08:28:40;;;;;;;2.10;1.90;;;;;;;20.83;68.83;99931.58;1695853;81;21129;-80
2022/07/08 08:31:08;;;;;;;2.98;2.08;;;;;;;20.89;68.95;99937.40;1707093;83;21551;-80
2022/07/08 08:33:39;;;;;;;3.05;2.10;;;;;;;20.94;68.28;99932.14;1701603;83;21277;-80
2022/07/08 08:36:09;;;;;;;2.70;2.50;;;;;;;20.96;68.52;99937.59;1710449;82;21010;-81
2022/07/08 08:38:36;;;;;;;1.95;1.80;;;;;;;21.00;67.99;99930.67;1703710;83;21015;-80
2022/07/08 08:41:04;;;;;;;3.77;1.75;;;;;;;21.00;66.90;99926.62;1695400;83;21034;-77
2022/07/08 08:43:31;;;;;;;2.72;1.80;;;;;;;21.03;66.97;99923.16;1712190;83;21125;-79
2022/07/08 08:45:57;;;;;;;3.92;1.98;;;;;;;21.09;66.77;99934.38;1712770;83;21280;-78
2022/07/08 08:48:26;;;;;;;2.47;2.10;;;;;;;21.14;67.13;99932.63;1689751;84;21105;-78
2022/07/08 08:50:56;;;;;;;2.02;1.85;;;;;;;21.24;66.55;99929.34;1711165;83;21759;-79
2022/07/08 08:53:30;;;;;;;2.67;1.98;;;;;;;21.31;66.37;99927.89;1717457;82;21112;-80
2022/07/08 08:56:02;;;;;;;2.40;1.77;;;;;;;21.38;65.72;99928.08;1710162;83;21121;-76
2022/07/08 08:58:33;;;;;;;2.20;1.92;;;;;;;21.44;64.74;99930.91;1723976;83;21290;-78
2022/07/08 09:01:07;;;;;;;1.80;1.70;;;;;;;21.49;64.54;99926.45;1719830;82;21060;-78
2022/07/08 09:03:37;;;;;;;2.77;1.72;;;;;;;21.54;64.61;99933.33;1697151;83;21135;-80
2022/07/08 09:06:13;;;;;;;1.77;1.67;;;;;;;21.64;63.85;99931.38;1694663;84;21043;-86
2022/07/08 09:08:40;;;;;;;2.70;2.02;;;;;;;21.70;63.20;99928.27;1722999;82;21097;-86
2022/07/08 09:11:07;;;;;;;2.75;1.92;;;;;;;21.73;63.81;99926.42;1718247;82;21111;-83
2022/07/08 09:13:35;;;;;;;2.30;2.10;;;;;;;21.80;63.97;99924.42;1729115;82;21005;-87
2022/07/08 09:16:01;;;;;;;3.05;2.00;;;;;;;21.89;63.96;99923.53;1703995;82;21105;-82
2022/07/08 09:18:40;;;;;;;4.37;1.90;;;;;;;21.99;62.79;99919.69;1724107;82;21068;-77
2022/07/08 09:21:07;;;;;;;3.15;1.80;;;;;;;22.02;62.09;99913.81;1728985;82;21072;-75
2022/07/08 09:23:36;;;;;;;3.72;1.92;;;;;;;22.01;62.07;99919.45;1719972;82;21253;-76
2022/07/08 09:26:07;;;;;;;2.15;1.95;;;;;;;21.99;61.80;99924.55;1731481;82;21054;-76
2022/07/08 09:28:43;;;;;;;2.75;1.98;;;;;;;22.04;62.00;99925.21;1719402;82;21122;-76
2022/07/08 09:31:13;;;;;;;4.22;2.10;;;;;;;22.16;62.51;99930.05;1695379;82;21080;-78
2022/07/08 09:33:40;;;;;;;2.05;1.95;;;;;;;22.39;63.16;99922.95;1731442;82;21036;-77
2022/07/08 09:36:08;;;;;;;2.65;2.45;;;;;;;22.65;62.31;99927.48;1721047;82;21111;-77
2022/07/08 09:38:38;;;;;;;2.45;2.00;;;;;;;22.91;60.79;99920.62;1694624;81;21026;-77
2022/07/08 09:41:24;;;;;;;2.22;1.90;;;;;;;23.10;60.66;99912.58;1696926;81;21045;-77
2022/07/08 09:43:52;;;;;;;2.10;2.00;;;;;;;23.34;61.05;99905.62;1580882;88;21100;-78
2022/07/08 09:46:20;;;;;;;2.30;2.10;;;;;;;23.65;60.03;99906.87;1630031;86;21179;-78
2022/07/08 09:48:48;;;;;;;2.10;1.95;;;;;;;23.96;59.54;99907.84;1654863;85;21185;-77
2022/07/08 09:51:18;;;;;;;1.90;1.80;;;;;;;24.39;59.22;99897.46;1647176;85;21047;-77
2022/07/08 09:53:44;;;;;;;3.67;2.00;;;;;;;24.87;57.57;99903.92;1655186;85;21581;-77
2022/07/08 09:56:11;;;;;;;1.98;1.80;;;;;;;25.43;57.64;99908.17;1647904;85;21121;-77
2022/07/08 09:58:37;;;;;;;2.10;2.00;;;;;;;25.80;54.90;99908.65;1620460;87;21067;-78
2022/07/08 10:01:04;;;;;;;2.25;2.05;;;;;;;25.92;54.28;99894.30;1649304;86;21621;-77
2022/07/08 10:03:32;;;;;;;2.67;2.47;;;;;;;25.89;53.47;99895.63;1644730;86;21687;-78
2022/07/08 10:05:59;;;;;;;3.95;2.00;;;;;;;25.72;52.91;99907.80;1646434;85;21083;-78
2022/07/08 10:08:28;;;;;;;3.90;1.90;;;;;;;25.47;54.03;99904.66;1648930;85;21100;-77
2022/07/08 10:10:56;;;;;;;1.90;1.80;;;;;;;25.29;53.45;99900.47;1653101;85;22030;-75
2022/07/08 10:13:23;;;;;;;2.72;2.02;;;;;;;25.14;53.91;99904.96;1648645;85;21955;-79
2022/07/08 10:15:50;;;;;;;2.75;1.77;;;;;;;25.20;54.17;99906.62;1654800;85;21025;-77
2022/07/08 10:18:27;;;;;;;4.35;2.00;;;;;;;25.45;54.05;99906.82;1646637;87;21126;-79
2022/07/08 10:20:56;;;;;;;1.85;1.75;;;;;;;25.96;53.80;99906.83;1649250;85;21015;-78
2022/07/08 10:23:46;;;;;;;1.87;1.77;;;;;;;26.58;52.81;99897.77;1653408;85;21075;-80
2022/07/08 10:26:13;;;;;;;2.60;1.52;;;;;;;27.21;52.50;99898.86;1647206;85;21757;-80
2022/07/08 10:28:41;;;;;;;3.52;1.85;;;;;;;27.97;49.87;99905.28;1625780;86;21156;-77
2022/07/08 10:31:23;;;;;;;2.02;1.77;;;;;;;28.51;49.10;99899.56;1628953;86;21614;-80
2022/07/08 10:33:50;;;;;;;2.50;1.90;;;;;;;28.98;47.63;99893.17;1626632;86;21620;-80
2022/07/08 10:36:21;;;;;;;2.52;2.33;;;;;;;29.37;47.38;99890.91;1600420;88;21144;-77
2022/07/08 10:38:48;;;;;;;1.87;1.77;;;;;;;29.75;46.89;99891.08;1636427;86;21502;-79
2022/07/08 10:41:20;;;;;;;1.92;1.75;;;;;;;30.11;46.10;99894.16;1643876;86;21067;-79
2022/07/08 10:43:55;;;;;;;2.52;1.90;;;;;;;30.30;45.61;99890.62;1640983;86;21635;-81
2022/07/08 10:46:22;;;;;;;2.72;1.90;;;;;;;30.35;44.99;99890.02;1612721;87;21169;-81
2022/07/08 10:48:57;;;;;;;2.87;1.90;;;;;;;30.17;44.85;99895.73;1591211;88;21085;-80
2022/07/08 10:51:31;;;;;;;1.75;1.65;;;;;;;29.85;44.90;99895.61;1613676;87;21309;-88
2022/07/08 10:54:01;;;;;;;3.47;2.20;;;;;;;29.56;45.87;99904.11;1621393;87;21097;-86
2022/07/08 10:56:52;;;;;;;2.83;2.42;;;;;;;29.44;45.81;99900.13;1623709;87;21096;-80
2022/07/08 10:59:26;;;;;;;2.90;2.42;;;;;;;29.33;45.74;99900.25;1626627;87;21006;-82
2022/07/08 11:02:16;;;;;;;2.25;2.02;;;;;;;29.08;45.78;99899.11;1616604;87;21312;-85
2022/07/08 11:04:47;;;;;;;2.62;1.85;;;;;;;28.81;46.04;99896.32;1621634;87;21167;-82
2022/07/08 11:07:23;;;;;;;5.12;2.12;;;;;;;28.58;46.29;99906.05;1637950;86;21110;-81
2022/07/08 11:10:06;;;;;;;2.35;2.15;;;;;;;28.35;46.55;99898.78;1632742;86;21006;-77
2022/07/08 11:12:36;;;;;;;3.12;1.92;;;;;;;28.20;47.15;99901.60;1612243;87;21156;-80
2022/07/08 11:15:18;;;;;;;5.00;1.95;;;;;;;28.18;47.48;99904.64;1617161;87;21121;-81
2022/07/08 11:17:48;;;;;;;;;;;;;;;28.19;47.36;99894.52;1600454;88;21176;-83
2022/07/08 11:20:18;;;;;;;3.33;2.10;;;;;;;28.29;47.44;99893.65;1599818;88;20194;-79
2022/07/08 11:22:45;;;;;;;2.58;1.90;;;;;;;28.48;47.06;99894.61;1624362;86;21080;-80
2022/07/08 11:25:14;;;;;;;4.12;2.33;;;;;;;28.92;46.47;99885.56;1607168;87;21126;-77
2022/07/08 11:27:43;;;;;;;3.42;2.10;;;;;;;29.26;45.96;99890.19;1611182;87;21637;-80
2022/07/08 11:30:12;;;;;;;4.45;1.98;;;;;;;29.56;46.10;99884.14;1623839;87;21108;-82
2022/07/08 11:32:39;;;;;;;2.47;2.12;;;;;;;29.78;45.50;99888.55;1622585;87;21656;-83
2022/07/08 11:35:07;;;;;;;2.47;2.20;;;;;;;29.87;44.26;99887.92;1625384;86;20971;-83
2022/07/08 11:37:43;;;;;;;3.45;1.98;;;;;;;29.80;44.21;99889.63;1621089;87;21065;-80
2022/07/08 11:40:12;;;;;;;3.33;1.70;;;;;;;29.62;44.66;99880.80;1622635;87;21589;-82
2022/07/08 11:42:40;;;;;;;3.80;1.90;;;;;;;29.36;45.10;99883.27;1625268;85;21175;-80
2022/07/08 11:45:09;;;;;;;2.62;2.02;;;;;;;29.09;45.87;99879.67;1643971;86;21116;-81
2022/07/08 11:47:38;;;;;;;2.42;2.05;;;;;;;29.00;46.10;99878.66;1643933;86;21085;-81
2022/07/08 11:50:07;;;;;;;4.22;1.90;;;;;;;28.85;46.35;99887.00;1644707;86;21092;-82
2022/07/08 11:52:34;;;;;;;4.12;1.77;;;;;;;28.76;46.29;99888.15;1620987;87;21904;-82
2022/07/08 11:55:01;;;;;;;2.70;1.82;;;;;;;28.50;46.26;99893.78;1639882;85;21275;-82
2022/07/08 11:57:29;;;;;;;2.05;1.87;;;;;;;28.21;46.71;99889.59;1645565;86;21053;-83
2022/07/08 11:59:57;;;;;;;1.98;1.85;;;;;;;27.92;47.15;99893.00;1645133;86;21052;-81
2022/07/08 12:02:24;;;;;;;2.45;2.10;;;;;;;27.70;47.66;99892.51;1646197;86;21037;-82
2022/07/08 12:04:52;;;;;;;3.67;2.02;;;;;;;27.46;47.75;99887.67;1628349;86;21041;-83